Terminal Aerodrome Forecast
Issued by NWS

Home | Current Version | Previous Version | Text Only | Print | Product List | Glossary On
Versions: 1 2 3 4 5 6 7 8 9 10 11 12 13 14
000
FTUS46 KSTO 121100 RRA
TAFMHR
TAF
KMHR 121142Z 1212/1312 16006KT P6SM SKC
     FM122100 22009KT P6SM SKC
     FM130600 16007KT P6SM SKC=

USA.gov is the U.S. government's official web portal to all federal, state and local government web resources and services.